createdAt,value
2022-09-13T00:01:54.761Z,99.90
2022-09-13T00:04:21.313Z,99.90
2022-09-13T00:06:50.087Z,99.90
2022-09-13T00:09:16.601Z,99.90
2022-09-13T00:11:45.520Z,99.90
2022-09-13T00:14:12.062Z,99.90
2022-09-13T00:16:38.623Z,99.90
2022-09-13T00:19:05.180Z,99.90
2022-09-13T00:21:32.242Z,99.90
2022-09-13T00:23:58.779Z,99.90
2022-09-13T00:26:26.776Z,99.90
2022-09-13T00:28:54.206Z,99.90
2022-09-13T00:31:21.569Z,99.90
2022-09-13T00:33:48.199Z,99.90
2022-09-13T00:36:17.147Z,99.90
2022-09-13T00:38:46.217Z,99.90
2022-09-13T00:41:14.540Z,99.90
2022-09-13T00:43:49.644Z,99.90
2022-09-13T00:46:19.158Z,99.90
2022-09-13T00:48:49.272Z,99.90
2022-09-13T00:51:16.351Z,99.90
2022-09-13T00:53:46.998Z,99.90
2022-09-13T00:56:18.616Z,99.90
2022-09-13T00:59:03.850Z,99.90
2022-09-13T01:01:33.695Z,99.90
2022-09-13T01:04:01.222Z,99.90
2022-09-13T01:06:33.041Z,99.90
2022-09-13T01:09:04.220Z,99.90
2022-09-13T01:11:33.478Z,99.90
2022-09-13T01:14:00.100Z,99.90
2022-09-13T01:16:26.957Z,99.90
2022-09-13T01:18:53.533Z,99.90
2022-09-13T01:21:38.578Z,99.90
2022-09-13T01:24:23.955Z,99.90
2022-09-13T01:27:10.722Z,99.90
2022-09-13T01:29:55.859Z,99.90
2022-09-13T01:32:22.338Z,99.90
2022-09-13T01:34:54.667Z,99.90
2022-09-13T01:37:26.990Z,99.90
2022-09-13T01:39:55.494Z,99.90
2022-09-13T01:42:29.935Z,99.90
2022-09-13T01:45:14.997Z,99.90
2022-09-13T01:47:47.826Z,99.90
2022-09-13T01:50:14.283Z,99.90
2022-09-13T01:52:40.911Z,99.90
2022-09-13T01:55:07.494Z,99.90
2022-09-13T01:57:43.477Z,99.90
2022-09-13T02:00:12.698Z,99.90
2022-09-13T02:02:57.974Z,99.90
2022-09-13T02:05:29.228Z,99.90
2022-09-13T02:07:58.250Z,99.90
2022-09-13T02:10:31.954Z,99.90
2022-09-13T02:12:59.117Z,99.90
2022-09-13T02:15:36.238Z,99.90
2022-09-13T02:18:09.938Z,99.90
2022-09-13T02:20:41.383Z,99.90
2022-09-13T02:23:10.551Z,99.90
2022-09-13T02:25:40.230Z,99.90
2022-09-13T02:28:09.308Z,99.90
2022-09-13T02:30:40.224Z,99.90
2022-09-13T02:33:12.746Z,99.90
2022-09-13T02:35:59.633Z,99.90
2022-09-13T02:38:28.126Z,99.90
2022-09-13T02:41:00.266Z,99.90
2022-09-13T02:43:37.876Z,99.90
2022-09-13T02:46:23.204Z,99.90
2022-09-13T02:48:58.529Z,99.90
2022-09-13T02:52:03.551Z,99.90
2022-09-13T02:54:32.605Z,99.90
2022-09-13T02:57:01.136Z,99.90
2022-09-13T02:59:27.771Z,99.90
2022-09-13T03:02:00.044Z,99.90
2022-09-13T03:04:27.434Z,99.90
2022-09-13T03:06:56.179Z,99.90
2022-09-13T03:09:22.913Z,99.90
2022-09-13T03:11:49.393Z,99.90
2022-09-13T03:14:20.204Z,99.90
2022-09-13T03:16:46.772Z,99.90
2022-09-13T03:19:13.351Z,99.90
2022-09-13T03:21:39.826Z,99.90
2022-09-13T03:24:15.710Z,99.90
2022-09-13T03:27:01.013Z,99.90
2022-09-13T03:29:41.050Z,99.90
2022-09-13T03:32:10.572Z,99.90
2022-09-13T03:34:56.006Z,99.90
2022-09-13T03:37:25.489Z,99.90
2022-09-13T03:40:12.544Z,99.90
2022-09-13T03:42:39.067Z,99.90
2022-09-13T03:45:09.585Z,99.90
2022-09-13T03:47:37.275Z,99.90
2022-09-13T03:50:07.457Z,99.90
2022-09-13T03:52:36.608Z,99.90
2022-09-13T03:55:03.482Z,99.90
2022-09-13T03:57:30.007Z,99.90
2022-09-13T03:59:57.103Z,99.90
2022-09-13T04:02:24.489Z,99.90
2022-09-13T04:04:53.197Z,99.90
2022-09-13T04:07:21.212Z,99.90
2022-09-13T04:09:47.917Z,99.90
2022-09-13T04:12:15.079Z,99.90
2022-09-13T04:14:43.730Z,99.90
2022-09-13T04:17:10.964Z,99.90
2022-09-13T04:19:37.562Z,99.90
2022-09-13T04:22:04.406Z,99.90
2022-09-13T04:24:31.359Z,99.90
2022-09-13T04:26:57.990Z,99.90
2022-09-13T04:29:25.847Z,99.90
2022-09-13T04:31:53.274Z,99.90
2022-09-13T04:34:22.168Z,99.90
2022-09-13T04:36:49.153Z,99.90
2022-09-13T04:39:15.761Z,99.90
2022-09-13T04:41:45.963Z,99.90
2022-09-13T04:44:12.755Z,99.90
2022-09-13T04:46:39.257Z,99.90
2022-09-13T04:49:05.812Z,99.90
2022-09-13T04:51:32.366Z,99.90
2022-09-13T04:54:00.175Z,99.90
2022-09-13T04:56:26.976Z,99.90
2022-09-13T04:58:55.955Z,99.90
2022-09-13T05:01:27.091Z,99.90
2022-09-13T05:03:54.775Z,99.90
2022-09-13T05:06:23.510Z,99.90
2022-09-13T05:08:52.175Z,99.90
2022-09-13T05:11:21.232Z,99.90
2022-09-13T05:13:52.955Z,99.90
2022-09-13T05:16:19.611Z,99.90
2022-09-13T05:18:49.343Z,99.90
2022-09-13T05:21:15.946Z,99.90
2022-09-13T05:23:42.566Z,99.90
2022-09-13T05:26:09.107Z,99.90
2022-09-13T05:28:36.471Z,99.90
2022-09-13T05:31:04.637Z,99.90
2022-09-13T05:33:32.664Z,99.90
2022-09-13T05:35:59.451Z,99.90
2022-09-13T05:38:26.244Z,99.90
2022-09-13T05:41:00.768Z,99.90
2022-09-13T05:43:31.186Z,99.90
2022-09-13T05:46:10.241Z,99.90
2022-09-13T05:48:37.301Z,99.90
2022-09-13T05:51:13.930Z,99.90
2022-09-13T05:53:41.710Z,99.90
2022-09-13T05:56:12.310Z,99.90
2022-09-13T05:58:42.904Z,99.90
2022-09-13T06:01:10.587Z,99.90
2022-09-13T06:03:37.384Z,99.90
2022-09-13T06:06:04.570Z,99.90
2022-09-13T06:08:31.921Z,99.90
2022-09-13T06:11:08.475Z,99.90
2022-09-13T06:13:37.797Z,99.90
2022-09-13T06:16:08.012Z,99.90
2022-09-13T06:18:35.722Z,99.90
2022-09-13T06:21:09.880Z,99.90
2022-09-13T06:23:39.118Z,99.90
2022-09-13T06:26:12.906Z,99.90
2022-09-13T06:28:39.830Z,99.90
2022-09-13T06:31:08.842Z,99.90
2022-09-13T06:33:36.387Z,99.90
2022-09-13T06:36:03.954Z,99.90
2022-09-13T06:38:30.712Z,99.90
2022-09-13T06:41:01.422Z,99.90
2022-09-13T06:43:30.365Z,99.90
2022-09-13T06:46:17.900Z,99.90
2022-09-13T06:48:46.427Z,99.90
2022-09-13T06:51:14.744Z,99.90
2022-09-13T06:53:41.730Z,99.90
2022-09-13T06:56:10.301Z,99.90
2022-09-13T06:58:37.727Z,99.90
2022-09-13T07:01:15.287Z,99.90
2022-09-13T07:03:43.012Z,99.90
2022-09-13T07:06:22.239Z,99.90
2022-09-13T07:08:50.257Z,99.90
2022-09-13T07:11:18.393Z,99.90
2022-09-13T07:13:52.043Z,99.90
2022-09-13T07:16:21.523Z,99.90
2022-09-13T07:18:52.474Z,99.90
2022-09-13T07:21:19.270Z,99.90
2022-09-13T07:23:45.994Z,99.90
2022-09-13T07:26:14.931Z,99.90
2022-09-13T07:28:42.654Z,99.90
2022-09-13T07:31:18.617Z,99.90
2022-09-13T07:33:45.310Z,99.90
2022-09-13T07:36:12.408Z,99.90
2022-09-13T07:38:40.192Z,99.90
2022-09-13T07:41:08.887Z,99.90
2022-09-13T07:43:38.567Z,99.90
2022-09-13T07:46:06.599Z,99.90
2022-09-13T07:48:34.135Z,99.90
2022-09-13T07:51:03.547Z,99.90
2022-09-13T07:53:35.585Z,99.90
2022-09-13T07:56:06.759Z,99.90
2022-09-13T07:58:33.901Z,99.90
2022-09-13T08:01:12.210Z,99.90
2022-09-13T08:03:38.965Z,99.90
2022-09-13T08:06:08.510Z,99.90
2022-09-13T08:08:35.992Z,99.90
2022-09-13T08:11:03.628Z,99.90
2022-09-13T08:13:32.167Z,99.90
2022-09-13T08:16:07.608Z,99.90
2022-09-13T08:18:34.228Z,99.90
2022-09-13T08:21:03.120Z,99.90
2022-09-13T08:23:29.828Z,99.90
2022-09-13T08:26:00.625Z,99.90
2022-09-13T08:28:27.859Z,99.90
2022-09-13T08:30:54.766Z,99.90
2022-09-13T08:33:21.364Z,99.90
2022-09-13T08:35:51.812Z,99.90
2022-09-13T08:38:18.936Z,99.90
2022-09-13T08:40:52.102Z,99.90
2022-09-13T08:43:36.221Z,99.90
2022-09-13T08:46:06.305Z,99.90
2022-09-13T08:48:36.917Z,99.90
2022-09-13T08:51:07.935Z,99.90
2022-09-13T08:53:43.910Z,99.90
2022-09-13T08:56:18.201Z,99.90
2022-09-13T08:58:49.294Z,99.90
2022-09-13T09:01:35.463Z,99.90
2022-09-13T09:04:05.086Z,99.90
2022-09-13T09:06:33.635Z,99.90
2022-09-13T09:09:05.151Z,99.90
2022-09-13T09:11:44.432Z,99.90
2022-09-13T09:14:17.354Z,99.90
2022-09-13T09:16:55.397Z,99.90
2022-09-13T09:19:21.934Z,99.90
2022-09-13T09:21:49.588Z,99.90
2022-09-13T09:24:18.950Z,99.90
2022-09-13T09:26:45.960Z,99.90
2022-09-13T09:29:22.936Z,99.90
2022-09-13T09:31:58.297Z,99.90
2022-09-13T09:34:42.449Z,99.90
2022-09-13T09:37:17.513Z,99.90
2022-09-13T09:39:44.658Z,99.90
2022-09-13T09:42:17.097Z,99.90
2022-09-13T09:44:45.074Z,99.90
2022-09-13T09:47:14.113Z,99.90
2022-09-13T09:50:08.632Z,99.90
2022-09-13T09:52:51.290Z,99.90
2022-09-13T09:55:21.106Z,99.90
2022-09-13T09:58:08.441Z,99.90
2022-09-13T10:00:36.080Z,99.90
2022-09-13T10:03:17.014Z,99.90
2022-09-13T10:05:43.954Z,99.90
2022-09-13T10:08:28.325Z,99.90
2022-09-13T10:10:57.304Z,99.90
2022-09-13T10:13:25.651Z,99.90
2022-09-13T10:16:00.060Z,99.90
2022-09-13T10:18:43.452Z,99.90
2022-09-13T10:21:58.485Z,99.90
2022-09-13T10:24:24.986Z,99.90
2022-09-13T10:26:51.755Z,99.90
2022-09-13T10:29:18.676Z,99.90
2022-09-13T10:31:47.063Z,99.90
2022-09-13T10:34:17.507Z,99.90
2022-09-13T10:36:54.648Z,99.90
2022-09-13T10:39:22.519Z,99.90
2022-09-13T10:41:51.619Z,99.90
2022-09-13T10:44:24.619Z,99.40
2022-09-13T10:46:51.802Z,99.30
2022-09-13T10:49:39.166Z,99.10
2022-09-13T10:52:31.769Z,98.70
2022-09-13T10:55:18.551Z,98.90
2022-09-13T10:57:49.627Z,99.10
2022-09-13T11:00:20.698Z,98.70
2022-09-13T11:02:54.464Z,98.70
2022-09-13T11:05:26.650Z,98.50
2022-09-13T11:07:56.161Z,98.70
2022-09-13T11:10:34.972Z,98.30
2022-09-13T11:13:14.483Z,98.00
2022-09-13T11:15:50.519Z,97.80
2022-09-13T11:18:22.962Z,97.50
2022-09-13T11:21:08.119Z,97.60
2022-09-13T11:23:53.347Z,97.60
2022-09-13T11:26:19.849Z,97.30
2022-09-13T11:28:54.314Z,96.90
2022-09-13T11:31:27.249Z,96.80
2022-09-13T11:34:11.966Z,95.60
2022-09-13T11:36:40.639Z,94.90
2022-09-13T11:39:18.901Z,94.50
2022-09-13T11:42:03.018Z,94.40
2022-09-13T11:44:46.770Z,94.30
2022-09-13T11:47:13.307Z,94.50
2022-09-13T11:49:42.868Z,94.20
2022-09-13T11:52:16.340Z,93.30
2022-09-13T11:54:58.201Z,93.90
2022-09-13T11:57:32.058Z,94.10
2022-09-13T12:00:01.112Z,94.30
2022-09-13T12:02:30.561Z,93.90
2022-09-13T12:05:22.547Z,94.10
2022-09-13T12:07:49.624Z,94.00
2022-09-13T12:10:25.225Z,93.20
2022-09-13T12:12:53.679Z,93.10
2022-09-13T12:15:20.184Z,93.10
2022-09-13T12:18:06.972Z,93.00
2022-09-13T12:20:35.530Z,92.50
2022-09-13T12:23:06.975Z,92.00
2022-09-13T12:25:47.642Z,91.30
2022-09-13T12:28:25.644Z,91.90
2022-09-13T12:30:55.550Z,91.60
2022-09-13T12:33:22.326Z,91.60
2022-09-13T12:35:53.836Z,91.60
2022-09-13T12:38:30.727Z,91.80
2022-09-13T12:41:19.467Z,90.70
2022-09-13T12:43:48.178Z,90.30
2022-09-13T12:46:23.885Z,90.10
2022-09-13T12:49:02.992Z,90.00
2022-09-13T12:51:38.765Z,89.00
2022-09-13T12:54:15.381Z,86.60
2022-09-13T12:56:45.073Z,87.10
2022-09-13T12:59:35.434Z,86.80
2022-09-13T13:02:04.200Z,83.30
2022-09-13T13:04:33.095Z,84.80
2022-09-13T13:07:04.915Z,84.30
2022-09-13T13:09:34.569Z,84.70
2022-09-13T13:12:01.165Z,85.10
2022-09-13T13:14:44.308Z,84.40
2022-09-13T13:17:32.139Z,84.10
2022-09-13T13:19:58.688Z,83.70
2022-09-13T13:22:44.293Z,83.50
2022-09-13T13:28:31.173Z,83.70
2022-09-13T13:31:00.209Z,83.30
2022-09-13T13:33:29.430Z,82.40
2022-09-13T13:35:56.136Z,82.80
2022-09-13T13:38:28.783Z,83.30
2022-09-13T13:41:05.081Z,83.10
2022-09-13T13:43:33.654Z,82.90
2022-09-13T13:46:22.898Z,83.00
2022-09-13T13:48:52.405Z,82.90
2022-09-13T13:51:33.382Z,83.30
2022-09-13T13:54:02.373Z,83.30
2022-09-13T13:56:46.917Z,83.70
2022-09-13T13:59:16.919Z,83.30
2022-09-13T14:01:48.761Z,83.80
2022-09-13T14:04:32.737Z,83.90
2022-09-13T14:07:18.934Z,84.00
2022-09-13T14:09:59.154Z,84.50
2022-09-13T14:12:25.827Z,84.30
2022-09-13T14:15:22.222Z,84.50
2022-09-13T14:17:56.834Z,84.60
2022-09-13T14:20:25.144Z,84.20
2022-09-13T14:22:51.670Z,84.20
2022-09-13T14:25:22.328Z,84.10
2022-09-13T14:27:49.485Z,84.60
2022-09-13T14:30:18.915Z,84.70
2022-09-13T14:32:56.820Z,84.50
2022-09-13T14:35:46.500Z,84.00
2022-09-13T14:38:23.668Z,84.60
2022-09-13T14:40:54.172Z,84.40
2022-09-13T14:43:31.138Z,84.60
2022-09-13T14:46:21.330Z,84.80
2022-09-13T14:48:52.101Z,84.80
2022-09-13T14:51:36.918Z,84.60
2022-09-13T14:54:29.580Z,84.70
2022-09-13T14:57:00.789Z,85.30
2022-09-13T14:59:31.174Z,84.80
2022-09-13T15:02:02.879Z,84.70
2022-09-13T15:04:29.963Z,85.00
2022-09-13T15:07:11.137Z,84.70
2022-09-13T15:09:40.098Z,83.30
2022-09-13T15:12:20.705Z,82.20
2022-09-13T15:14:48.148Z,81.90
2022-09-13T15:17:15.057Z,82.00
2022-09-13T15:19:48.858Z,81.90
2022-09-13T15:22:15.380Z,82.00
2022-09-13T15:24:49.773Z,82.50
2022-09-13T15:27:19.170Z,82.20
2022-09-13T15:29:49.921Z,82.50
2022-09-13T15:32:31.846Z,82.90
2022-09-13T15:34:59.332Z,83.10
2022-09-13T15:37:37.981Z,83.10
2022-09-13T15:40:13.556Z,83.70
2022-09-13T15:42:40.204Z,83.50
2022-09-13T15:45:06.935Z,83.30
2022-09-13T15:47:33.542Z,83.70
2022-09-13T15:50:00.096Z,84.10
2022-09-13T15:52:26.632Z,84.30
2022-09-13T15:54:53.184Z,84.80
2022-09-13T15:57:25.246Z,84.90
2022-09-13T15:59:52.281Z,85.30
2022-09-13T16:02:23.171Z,85.20
2022-09-13T16:04:50.194Z,85.80
2022-09-13T16:07:17.209Z,86.20
2022-09-13T16:09:46.257Z,86.50
2022-09-13T16:12:14.900Z,86.80
2022-09-13T16:14:41.463Z,87.30
2022-09-13T16:17:12.191Z,87.80
2022-09-13T16:19:38.773Z,88.20
2022-09-13T16:22:07.743Z,88.40
2022-09-13T16:24:37.911Z,88.90
2022-09-13T16:27:06.842Z,89.20
2022-09-13T16:29:33.403Z,89.70
2022-09-13T16:32:01.591Z,89.90
2022-09-13T16:34:28.189Z,90.10
2022-09-13T16:36:54.786Z,90.40
2022-09-13T16:39:21.416Z,90.50
2022-09-13T16:41:48.594Z,90.70
2022-09-13T16:44:15.912Z,90.90
2022-09-13T16:46:44.935Z,91.00
2022-09-13T16:49:11.586Z,91.20
2022-09-13T16:51:38.196Z,91.30
2022-09-13T16:54:07.723Z,91.30
2022-09-13T16:56:34.355Z,91.50
2022-09-13T16:59:00.973Z,91.60
2022-09-13T17:01:28.542Z,91.80
2022-09-13T17:03:55.777Z,92.00
2022-09-13T17:06:23.574Z,92.30
2022-09-13T17:08:55.323Z,92.50
2022-09-13T17:11:23.070Z,92.80
2022-09-13T17:13:52.733Z,92.90
2022-09-13T17:16:24.689Z,93.10
2022-09-13T17:18:51.634Z,93.30
2022-09-13T17:21:18.448Z,93.60
2022-09-13T17:23:45.442Z,93.80
2022-09-13T17:26:12.176Z,94.00
2022-09-13T17:28:38.696Z,94.00
2022-09-13T17:31:05.596Z,94.30
2022-09-13T17:33:32.256Z,94.70
2022-09-13T17:36:01.893Z,95.20
2022-09-13T17:38:28.733Z,95.60
2022-09-13T17:40:59.072Z,96.00
2022-09-13T17:43:25.609Z,96.70
2022-09-13T17:45:52.140Z,97.40
2022-09-13T17:48:21.105Z,97.90
2022-09-13T17:50:50.074Z,98.80
2022-09-13T17:53:16.625Z,99.30
2022-09-13T17:55:47.381Z,99.90
2022-09-13T17:58:14.508Z,99.90
2022-09-13T18:00:46.093Z,99.90
2022-09-13T18:03:15.925Z,99.90
2022-09-13T18:05:42.509Z,99.90
2022-09-13T18:08:09.080Z,99.90
2022-09-13T18:11:10.597Z,99.90
2022-09-13T18:13:22.175Z,99.90
2022-09-13T18:15:59.131Z,99.90
2022-09-13T18:18:25.691Z,99.90
2022-09-13T18:20:52.285Z,99.90
2022-09-13T18:23:18.957Z,99.90
2022-09-13T18:25:59.398Z,99.90
2022-09-13T18:28:29.115Z,99.90
2022-09-13T18:30:59.431Z,99.90
2022-09-13T18:33:26.199Z,99.90
2022-09-13T18:36:14.406Z,99.90
2022-09-13T18:38:42.273Z,99.90
2022-09-13T18:41:18.353Z,99.90
2022-09-13T18:43:49.698Z,99.90
2022-09-13T18:46:23.669Z,99.90
2022-09-13T18:48:52.812Z,99.90
2022-09-13T18:51:21.894Z,99.90
2022-09-13T18:53:48.977Z,99.90
2022-09-13T18:56:16.795Z,99.90
2022-09-13T18:58:43.755Z,99.90
2022-09-13T19:01:15.237Z,99.90
2022-09-13T19:03:58.573Z,99.90
2022-09-13T19:06:26.206Z,99.90
2022-09-13T19:08:53.659Z,99.90
2022-09-13T19:11:45.340Z,99.90
2022-09-13T19:14:14.996Z,99.90
2022-09-13T19:16:41.817Z,99.90
2022-09-13T19:19:08.804Z,99.90
2022-09-13T19:21:35.480Z,99.90
2022-09-13T19:24:06.461Z,99.90
2022-09-13T19:26:36.176Z,99.90
2022-09-13T19:29:07.063Z,99.90
2022-09-13T19:31:35.172Z,99.90
2022-09-13T19:34:02.281Z,99.90
2022-09-13T19:36:33.905Z,99.90
2022-09-13T19:39:00.965Z,99.90
2022-09-13T19:41:29.505Z,99.90
2022-09-13T19:44:01.991Z,99.90
2022-09-13T19:46:31.504Z,99.90
2022-09-13T19:48:59.141Z,99.90
2022-09-13T19:51:30.138Z,99.90
2022-09-13T19:54:01.941Z,99.90
2022-09-13T19:56:29.855Z,99.90
2022-09-13T19:58:56.459Z,99.90
2022-09-13T20:01:24.185Z,99.90
2022-09-13T20:03:57.002Z,99.90
2022-09-13T20:06:24.275Z,99.90
2022-09-13T20:08:51.508Z,99.90
2022-09-13T20:11:18.790Z,99.90
2022-09-13T20:13:45.769Z,99.90
2022-09-13T20:16:16.526Z,99.90
2022-09-13T20:18:43.209Z,99.90
2022-09-13T20:21:09.823Z,99.90
2022-09-13T20:23:39.914Z,99.90
2022-09-13T20:26:20.493Z,99.90
2022-09-13T20:28:48.341Z,99.90
2022-09-13T20:31:15.273Z,99.90
2022-09-13T20:33:42.259Z,99.90
2022-09-13T20:36:10.549Z,99.90
2022-09-13T20:38:37.885Z,99.90
2022-09-13T20:41:05.637Z,99.90
2022-09-13T20:43:32.931Z,99.90
2022-09-13T20:46:02.528Z,99.90
2022-09-13T20:48:29.177Z,99.90
2022-09-13T20:50:56.502Z,99.90
2022-09-13T20:53:23.059Z,99.90
2022-09-13T20:55:49.596Z,99.90
2022-09-13T20:58:16.722Z,99.90
2022-09-13T21:00:43.254Z,99.90
2022-09-13T21:03:11.042Z,99.90
2022-09-13T21:05:37.800Z,99.90
2022-09-13T21:08:23.265Z,99.90
2022-09-13T21:10:57.069Z,99.90
2022-09-13T21:13:25.861Z,99.90
2022-09-13T21:15:52.414Z,99.90
2022-09-13T21:18:19.167Z,99.90
2022-09-13T21:20:53.820Z,99.90
2022-09-13T21:23:20.347Z,99.90
2022-09-13T21:25:46.894Z,99.90
2022-09-13T21:28:15.567Z,99.90
2022-09-13T21:30:42.133Z,99.90
2022-09-13T21:33:08.704Z,99.90
2022-09-13T21:35:40.994Z,99.90
2022-09-13T21:38:10.026Z,99.90
2022-09-13T21:40:36.540Z,99.90
2022-09-13T21:43:03.066Z,99.90
2022-09-13T21:45:29.978Z,99.90
2022-09-13T21:47:56.767Z,99.90
2022-09-13T21:50:23.334Z,99.90
2022-09-13T21:52:50.082Z,99.90
2022-09-13T21:55:17.398Z,99.90
2022-09-13T21:57:47.058Z,99.90
2022-09-13T22:00:14.574Z,99.90
2022-09-13T22:02:43.614Z,99.90
2022-09-13T22:05:10.215Z,99.90
2022-09-13T22:07:39.140Z,99.90
2022-09-13T22:10:05.777Z,99.90
2022-09-13T22:12:32.311Z,99.90
2022-09-13T22:14:58.846Z,99.90
2022-09-13T22:17:25.346Z,99.90
2022-09-13T22:19:52.040Z,99.90
2022-09-13T22:22:18.551Z,99.90
2022-09-13T22:24:46.420Z,99.90
2022-09-13T22:27:12.982Z,99.90
2022-09-13T22:29:41.817Z,99.90
2022-09-13T22:32:08.790Z,99.90
2022-09-13T22:34:35.465Z,99.90
2022-09-13T22:37:02.028Z,99.90
2022-09-13T22:39:28.655Z,99.90
2022-09-13T22:41:55.289Z,99.90
2022-09-13T22:44:21.865Z,99.90
2022-09-13T22:46:48.530Z,99.90
2022-09-13T22:49:16.267Z,99.90
2022-09-13T22:51:44.921Z,99.90
2022-09-13T22:54:13.680Z,99.90
2022-09-13T22:56:40.515Z,99.90
2022-09-13T22:59:08.387Z,99.90
2022-09-13T23:01:38.076Z,99.90
2022-09-13T23:04:04.842Z,99.90
2022-09-13T23:06:31.497Z,99.90
2022-09-13T23:09:02.546Z,99.90
2022-09-13T23:11:29.033Z,99.90
2022-09-13T23:14:00.274Z,99.90
2022-09-13T23:16:28.317Z,99.90
2022-09-13T23:18:57.602Z,99.90
2022-09-13T23:21:25.626Z,99.90
2022-09-13T23:23:52.238Z,99.90
2022-09-13T23:26:19.935Z,99.90
2022-09-13T23:28:47.084Z,99.90
2022-09-13T23:31:16.792Z,99.90
2022-09-13T23:33:44.955Z,99.90
2022-09-13T23:36:14.997Z,99.90
2022-09-13T23:38:45.465Z,99.90
2022-09-13T23:41:12.130Z,99.90
2022-09-13T23:43:41.151Z,99.90
2022-09-13T23:46:07.797Z,99.90
2022-09-13T23:48:36.501Z,99.90
2022-09-13T23:51:04.325Z,99.90
2022-09-13T23:53:32.979Z,99.90
2022-09-13T23:56:02.708Z,99.90
2022-09-13T23:58:29.609Z,99.90
